sensor_id;sensor_type;location;lat;lon;timestamp;P1;durP1;ratioP1;P2;durP2;ratioP2
14778;SDS011;7481;53.750;10.570;2022-08-05T00:02:12;23.13;;;10.80;;
14778;SDS011;7481;53.750;10.570;2022-08-05T00:05:01;22.35;;;11.35;;
14778;SDS011;7481;53.750;10.570;2022-08-05T00:07:51;27.40;;;12.60;;
14778;SDS011;7481;53.750;10.570;2022-08-05T00:10:46;23.55;;;12.63;;
14778;SDS011;7481;53.750;10.570;2022-08-05T00:13:35;23.55;;;12.25;;
14778;SDS011;7481;53.750;10.570;2022-08-05T00:16:25;24.38;;;12.77;;
14778;SDS011;7481;53.750;10.570;2022-08-05T00:19:32;23.98;;;12.07;;
14778;SDS011;7481;53.750;10.570;2022-08-05T00:22:31;22.75;;;11.35;;
14778;SDS011;7481;53.750;10.570;2022-08-05T00:25:18;26.08;;;13.05;;
14778;SDS011;7481;53.750;10.570;2022-08-05T00:28:06;25.50;;;14.20;;
14778;SDS011;7481;53.750;10.570;2022-08-05T00:30:58;28.60;;;15.02;;
14778;SDS011;7481;53.750;10.570;2022-08-05T00:33:50;22.95;;;13.32;;
14778;SDS011;7481;53.750;10.570;2022-08-05T00:36:57;26.90;;;14.77;;
14778;SDS011;7481;53.750;10.570;2022-08-05T00:39:59;23.30;;;12.65;;
14778;SDS011;7481;53.750;10.570;2022-08-05T00:42:46;22.98;;;12.07;;
14778;SDS011;7481;53.750;10.570;2022-08-05T00:45:35;24.48;;;13.95;;
14778;SDS011;7481;53.750;10.570;2022-08-05T00:48:29;27.58;;;12.73;;
14778;SDS011;7481;53.750;10.570;2022-08-05T00:51:18;24.33;;;13.50;;
14778;SDS011;7481;53.750;10.570;2022-08-05T00:54:25;23.77;;;13.20;;
14778;SDS011;7481;53.750;10.570;2022-08-05T00:57:15;22.38;;;13.43;;
14778;SDS011;7481;53.750;10.570;2022-08-05T01:00:06;19.50;;;12.63;;
14778;SDS011;7481;53.750;10.570;2022-08-05T01:02:57;18.13;;;11.93;;
14778;SDS011;7481;53.750;10.570;2022-08-05T01:05:45;22.90;;;12.10;;
14778;SDS011;7481;53.750;10.570;2022-08-05T01:08:32;21.65;;;11.95;;
14778;SDS011;7481;53.750;10.570;2022-08-05T01:11:31;18.73;;;11.57;;
14778;SDS011;7481;53.750;10.570;2022-08-05T01:14:27;19.48;;;12.00;;
14778;SDS011;7481;53.750;10.570;2022-08-05T01:17:39;20.85;;;10.55;;
14778;SDS011;7481;53.750;10.570;2022-08-05T01:20:43;17.40;;;10.65;;
14778;SDS011;7481;53.750;10.570;2022-08-05T01:30:18;21.17;;;10.68;;
14778;SDS011;7481;53.750;10.570;2022-08-05T01:33:20;16.15;;;9.93;;
14778;SDS011;7481;53.750;10.570;2022-08-05T01:36:12;21.40;;;11.20;;
14778;SDS011;7481;53.750;10.570;2022-08-05T01:39:06;16.90;;;10.45;;
14778;SDS011;7481;53.750;10.570;2022-08-05T01:41:54;15.15;;;9.43;;
14778;SDS011;7481;53.750;10.570;2022-08-05T01:44:43;15.48;;;9.45;;
14778;SDS011;7481;53.750;10.570;2022-08-05T01:47:40;16.13;;;9.18;;
14778;SDS011;7481;53.750;10.570;2022-08-05T01:50:30;10.88;;;8.10;;
14778;SDS011;7481;53.750;10.570;2022-08-05T01:53:25;14.80;;;8.43;;
14778;SDS011;7481;53.750;10.570;2022-08-05T01:56:35;13.90;;;8.07;;
14778;SDS011;7481;53.750;10.570;2022-08-05T01:59:45;13.88;;;7.85;;
14778;SDS011;7481;53.750;10.570;2022-08-05T02:02:35;14.00;;;8.18;;
14778;SDS011;7481;53.750;10.570;2022-08-05T02:05:40;13.27;;;7.30;;
14778;SDS011;7481;53.750;10.570;2022-08-05T02:08:33;10.23;;;6.78;;
14778;SDS011;7481;53.750;10.570;2022-08-05T02:11:47;12.95;;;7.50;;
14778;SDS011;7481;53.750;10.570;2022-08-05T02:14:48;10.60;;;7.78;;
14778;SDS011;7481;53.750;10.570;2022-08-05T02:17:47;12.07;;;7.30;;
14778;SDS011;7481;53.750;10.570;2022-08-05T02:21:11;15.95;;;7.55;;
14778;SDS011;7481;53.750;10.570;2022-08-05T02:24:08;10.90;;;7.15;;
14778;SDS011;7481;53.750;10.570;2022-08-05T02:27:04;12.65;;;6.97;;
14778;SDS011;7481;53.750;10.570;2022-08-05T02:29:56;14.55;;;7.10;;
14778;SDS011;7481;53.750;10.570;2022-08-05T02:32:47;11.23;;;6.38;;
14778;SDS011;7481;53.750;10.570;2022-08-05T02:35:37;10.25;;;6.25;;
14778;SDS011;7481;53.750;10.570;2022-08-05T02:38:43;11.60;;;6.10;;
14778;SDS011;7481;53.750;10.570;2022-08-05T02:41:39;13.70;;;6.05;;
14778;SDS011;7481;53.750;10.570;2022-08-05T02:44:46;11.95;;;6.00;;
14778;SDS011;7481;53.750;10.570;2022-08-05T02:47:34;9.55;;;5.70;;
14778;SDS011;7481;53.750;10.570;2022-08-05T02:50:43;11.50;;;6.03;;
14778;SDS011;7481;53.750;10.570;2022-08-05T02:53:35;9.32;;;5.43;;
14778;SDS011;7481;53.750;10.570;2022-08-05T02:56:25;9.23;;;5.05;;
14778;SDS011;7481;53.750;10.570;2022-08-05T02:59:16;9.10;;;5.45;;
14778;SDS011;7481;53.750;10.570;2022-08-05T03:02:12;8.15;;;5.72;;
14778;SDS011;7481;53.750;10.570;2022-08-05T03:05:03;8.05;;;5.50;;
14778;SDS011;7481;53.750;10.570;2022-08-05T03:07:53;7.53;;;4.85;;
14778;SDS011;7481;53.750;10.570;2022-08-05T03:10:53;7.88;;;5.20;;
14778;SDS011;7481;53.750;10.570;2022-08-05T03:14:00;11.80;;;5.50;;
14778;SDS011;7481;53.750;10.570;2022-08-05T03:16:49;14.10;;;6.55;;
14778;SDS011;7481;53.750;10.570;2022-08-05T03:19:39;11.70;;;6.35;;
14778;SDS011;7481;53.750;10.570;2022-08-05T03:22:31;14.77;;;5.70;;
14778;SDS011;7481;53.750;10.570;2022-08-05T03:25:19;10.13;;;5.80;;
14778;SDS011;7481;53.750;10.570;2022-08-05T03:28:29;11.50;;;5.82;;
14778;SDS011;7481;53.750;10.570;2022-08-05T03:31:17;9.32;;;5.57;;
14778;SDS011;7481;53.750;10.570;2022-08-05T03:34:25;14.05;;;5.57;;
14778;SDS011;7481;53.750;10.570;2022-08-05T03:37:14;11.48;;;6.30;;
14778;SDS011;7481;53.750;10.570;2022-08-05T03:40:01;11.52;;;5.60;;
14778;SDS011;7481;53.750;10.570;2022-08-05T03:42:57;9.05;;;5.50;;
14778;SDS011;7481;53.750;10.570;2022-08-05T03:46:01;12.02;;;5.78;;
14778;SDS011;7481;53.750;10.570;2022-08-05T03:48:49;11.57;;;5.78;;
14778;SDS011;7481;53.750;10.570;2022-08-05T03:51:59;9.32;;;5.43;;
14778;SDS011;7481;53.750;10.570;2022-08-05T03:55:09;7.30;;;5.00;;
14778;SDS011;7481;53.750;10.570;2022-08-05T03:58:19;6.05;;;4.60;;
14778;SDS011;7481;53.750;10.570;2022-08-05T04:01:14;9.07;;;5.35;;
14778;SDS011;7481;53.750;10.570;2022-08-05T04:04:06;9.90;;;5.30;;
14778;SDS011;7481;53.750;10.570;2022-08-05T04:06:56;6.05;;;4.93;;
14778;SDS011;7481;53.750;10.570;2022-08-05T04:09:44;6.60;;;4.78;;
14778;SDS011;7481;53.750;10.570;2022-08-05T04:12:39;7.88;;;5.00;;
14778;SDS011;7481;53.750;10.570;2022-08-05T04:15:25;8.02;;;5.28;;
14778;SDS011;7481;53.750;10.570;2022-08-05T04:18:19;9.27;;;5.25;;
14778;SDS011;7481;53.750;10.570;2022-08-05T04:21:11;10.38;;;5.38;;
14778;SDS011;7481;53.750;10.570;2022-08-05T04:24:18;14.32;;;6.88;;
14778;SDS011;7481;53.750;10.570;2022-08-05T04:27:08;9.43;;;4.85;;
14778;SDS011;7481;53.750;10.570;2022-08-05T04:29:55;8.70;;;4.88;;
14778;SDS011;7481;53.750;10.570;2022-08-05T04:32:42;7.15;;;4.85;;
14778;SDS011;7481;53.750;10.570;2022-08-05T04:35:29;5.93;;;4.78;;
14778;SDS011;7481;53.750;10.570;2022-08-05T04:38:36;10.18;;;5.30;;
14778;SDS011;7481;53.750;10.570;2022-08-05T04:41:25;9.55;;;5.20;;
14778;SDS011;7481;53.750;10.570;2022-08-05T04:44:22;7.03;;;5.07;;
14778;SDS011;7481;53.750;10.570;2022-08-05T04:47:15;9.65;;;5.10;;
14778;SDS011;7481;53.750;10.570;2022-08-05T04:50:05;7.97;;;4.82;;
14778;SDS011;7481;53.750;10.570;2022-08-05T04:52:57;6.05;;;4.50;;
14778;SDS011;7481;53.750;10.570;2022-08-05T04:55:44;5.15;;;4.40;;
14778;SDS011;7481;53.750;10.570;2022-08-05T04:58:51;5.93;;;4.25;;
14778;SDS011;7481;53.750;10.570;2022-08-05T05:01:38;5.85;;;4.25;;
14778;SDS011;7481;53.750;10.570;2022-08-05T05:04:45;6.35;;;4.13;;
14778;SDS011;7481;53.750;10.570;2022-08-05T05:07:36;5.20;;;4.03;;
14778;SDS011;7481;53.750;10.570;2022-08-05T05:10:32;7.85;;;4.53;;
14778;SDS011;7481;53.750;10.570;2022-08-05T05:13:23;7.35;;;4.45;;
14778;SDS011;7481;53.750;10.570;2022-08-05T05:16:10;7.28;;;4.65;;
14778;SDS011;7481;53.750;10.570;2022-08-05T05:19:00;6.43;;;4.60;;
14778;SDS011;7481;53.750;10.570;2022-08-05T05:22:04;6.75;;;4.03;;
14778;SDS011;7481;53.750;10.570;2022-08-05T05:25:11;5.88;;;4.18;;
14778;SDS011;7481;53.750;10.570;2022-08-05T05:28:02;6.82;;;4.32;;
14778;SDS011;7481;53.750;10.570;2022-08-05T05:30:50;6.18;;;4.43;;
14778;SDS011;7481;53.750;10.570;2022-08-05T05:33:37;10.65;;;4.35;;
14778;SDS011;7481;53.750;10.570;2022-08-05T05:36:44;5.55;;;4.45;;
14778;SDS011;7481;53.750;10.570;2022-08-05T05:39:32;8.43;;;4.65;;
14778;SDS011;7481;53.750;10.570;2022-08-05T05:42:21;8.20;;;4.20;;
14778;SDS011;7481;53.750;10.570;2022-08-05T05:45:09;8.60;;;4.78;;
14778;SDS011;7481;53.750;10.570;2022-08-05T05:47:59;5.47;;;4.72;;
14778;SDS011;7481;53.750;10.570;2022-08-05T05:50:53;7.97;;;4.40;;
14778;SDS011;7481;53.750;10.570;2022-08-05T05:53:40;7.10;;;4.57;;
14778;SDS011;7481;53.750;10.570;2022-08-05T05:56:44;6.47;;;4.28;;
14778;SDS011;7481;53.750;10.570;2022-08-05T05:59:32;13.80;;;4.60;;
14778;SDS011;7481;53.750;10.570;2022-08-05T06:02:25;6.40;;;4.93;;
14778;SDS011;7481;53.750;10.570;2022-08-05T06:05:23;7.65;;;4.68;;
14778;SDS011;7481;53.750;10.570;2022-08-05T06:08:12;6.43;;;4.40;;
14778;SDS011;7481;53.750;10.570;2022-08-05T06:10:59;5.55;;;4.88;;
14778;SDS011;7481;53.750;10.570;2022-08-05T06:13:46;8.25;;;5.07;;
14778;SDS011;7481;53.750;10.570;2022-08-05T06:16:39;6.88;;;5.15;;
14778;SDS011;7481;53.750;10.570;2022-08-05T06:19:29;8.50;;;4.93;;
14778;SDS011;7481;53.750;10.570;2022-08-05T06:22:21;6.85;;;4.20;;
14778;SDS011;7481;53.750;10.570;2022-08-05T06:25:09;8.85;;;4.80;;
14778;SDS011;7481;53.750;10.570;2022-08-05T06:28:18;8.27;;;4.70;;
14778;SDS011;7481;53.750;10.570;2022-08-05T06:31:07;7.78;;;5.00;;
14778;SDS011;7481;53.750;10.570;2022-08-05T06:34:03;5.80;;;5.28;;
14778;SDS011;7481;53.750;10.570;2022-08-05T06:36:54;8.23;;;5.20;;
14778;SDS011;7481;53.750;10.570;2022-08-05T06:39:43;7.97;;;4.85;;
14778;SDS011;7481;53.750;10.570;2022-08-05T06:42:30;8.77;;;5.15;;
14778;SDS011;7481;53.750;10.570;2022-08-05T06:45:18;7.30;;;5.38;;
14778;SDS011;7481;53.750;10.570;2022-08-05T06:48:26;8.18;;;5.00;;
14778;SDS011;7481;53.750;10.570;2022-08-05T06:51:34;9.32;;;6.10;;
14778;SDS011;7481;53.750;10.570;2022-08-05T06:54:26;8.95;;;6.03;;
14778;SDS011;7481;53.750;10.570;2022-08-05T06:57:14;8.23;;;5.35;;
14778;SDS011;7481;53.750;10.570;2022-08-05T07:00:23;7.70;;;5.28;;
14778;SDS011;7481;53.750;10.570;2022-08-05T07:03:11;12.20;;;5.30;;
14778;SDS011;7481;53.750;10.570;2022-08-05T07:05:58;7.07;;;5.45;;
14778;SDS011;7481;53.750;10.570;2022-08-05T07:08:59;7.10;;;4.93;;
14778;SDS011;7481;53.750;10.570;2022-08-05T07:11:50;8.45;;;5.50;;
14778;SDS011;7481;53.750;10.570;2022-08-05T07:14:37;7.68;;;5.32;;
14778;SDS011;7481;53.750;10.570;2022-08-05T07:17:43;9.40;;;5.65;;
14778;SDS011;7481;53.750;10.570;2022-08-05T07:20:48;7.85;;;5.22;;
14778;SDS011;7481;53.750;10.570;2022-08-05T07:23:35;6.45;;;5.03;;
14778;SDS011;7481;53.750;10.570;2022-08-05T07:26:34;5.85;;;4.88;;
14778;SDS011;7481;53.750;10.570;2022-08-05T07:29:21;8.02;;;5.60;;
14778;SDS011;7481;53.750;10.570;2022-08-05T07:32:28;9.45;;;5.85;;
14778;SDS011;7481;53.750;10.570;2022-08-05T07:35:22;7.25;;;4.65;;
14778;SDS011;7481;53.750;10.570;2022-08-05T07:38:29;5.75;;;4.63;;
14778;SDS011;7481;53.750;10.570;2022-08-05T07:41:21;6.97;;;4.07;;
14778;SDS011;7481;53.750;10.570;2022-08-05T07:44:29;5.45;;;4.43;;
14778;SDS011;7481;53.750;10.570;2022-08-05T07:47:17;6.07;;;5.13;;
14778;SDS011;7481;53.750;10.570;2022-08-05T07:50:11;7.78;;;5.22;;
14778;SDS011;7481;53.750;10.570;2022-08-05T07:53:02;6.55;;;4.40;;
14778;SDS011;7481;53.750;10.570;2022-08-05T07:55:49;5.95;;;4.38;;
14778;SDS011;7481;53.750;10.570;2022-08-05T07:58:56;7.68;;;5.03;;
14778;SDS011;7481;53.750;10.570;2022-08-05T08:01:44;6.30;;;4.72;;
14778;SDS011;7481;53.750;10.570;2022-08-05T08:04:46;9.30;;;5.88;;
14778;SDS011;7481;53.750;10.570;2022-08-05T08:07:35;8.27;;;5.20;;
14778;SDS011;7481;53.750;10.570;2022-08-05T08:10:42;6.28;;;5.10;;
14778;SDS011;7481;53.750;10.570;2022-08-05T08:13:34;5.78;;;4.38;;
14778;SDS011;7481;53.750;10.570;2022-08-05T08:16:28;6.93;;;4.90;;
14778;SDS011;7481;53.750;10.570;2022-08-05T08:19:36;7.28;;;5.13;;
14778;SDS011;7481;53.750;10.570;2022-08-05T08:22:49;5.50;;;4.85;;
14778;SDS011;7481;53.750;10.570;2022-08-05T08:25:41;7.05;;;5.30;;
14778;SDS011;7481;53.750;10.570;2022-08-05T08:28:48;6.93;;;4.80;;
14778;SDS011;7481;53.750;10.570;2022-08-05T08:31:45;5.78;;;5.20;;
14778;SDS011;7481;53.750;10.570;2022-08-05T08:34:33;6.88;;;5.10;;
14778;SDS011;7481;53.750;10.570;2022-08-05T08:37:21;5.30;;;4.78;;
14778;SDS011;7481;53.750;10.570;2022-08-05T08:40:13;9.27;;;5.70;;
14778;SDS011;7481;53.750;10.570;2022-08-05T08:43:01;9.10;;;5.38;;
14778;SDS011;7481;53.750;10.570;2022-08-05T08:46:09;6.15;;;4.70;;
14778;SDS011;7481;53.750;10.570;2022-08-05T08:49:02;4.95;;;4.53;;
14778;SDS011;7481;53.750;10.570;2022-08-05T08:52:10;7.28;;;4.70;;
14778;SDS011;7481;53.750;10.570;2022-08-05T08:55:10;5.78;;;4.32;;
14778;SDS011;7481;53.750;10.570;2022-08-05T08:58:05;7.43;;;5.22;;
14778;SDS011;7481;53.750;10.570;2022-08-05T09:00:54;6.07;;;5.47;;
14778;SDS011;7481;53.750;10.570;2022-08-05T09:03:41;6.63;;;5.32;;
14778;SDS011;7481;53.750;10.570;2022-08-05T09:06:41;7.32;;;5.05;;
14778;SDS011;7481;53.750;10.570;2022-08-05T09:09:29;7.60;;;5.20;;
14778;SDS011;7481;53.750;10.570;2022-08-05T09:12:21;13.50;;;5.55;;
14778;SDS011;7481;53.750;10.570;2022-08-05T09:15:13;9.73;;;5.35;;
14778;SDS011;7481;53.750;10.570;2022-08-05T09:18:00;8.82;;;5.90;;
14778;SDS011;7481;53.750;10.570;2022-08-05T09:20:48;9.30;;;5.72;;
14778;SDS011;7481;53.750;10.570;2022-08-05T09:23:36;7.90;;;5.22;;
14778;SDS011;7481;53.750;10.570;2022-08-05T09:26:29;7.13;;;5.93;;
14778;SDS011;7481;53.750;10.570;2022-08-05T09:29:17;6.45;;;4.60;;
14778;SDS011;7481;53.750;10.570;2022-08-05T09:32:05;8.63;;;5.03;;
14778;SDS011;7481;53.750;10.570;2022-08-05T09:35:14;6.97;;;4.90;;
14778;SDS011;7481;53.750;10.570;2022-08-05T09:38:12;6.20;;;4.55;;
14778;SDS011;7481;53.750;10.570;2022-08-05T09:41:04;5.78;;;4.63;;
14778;SDS011;7481;53.750;10.570;2022-08-05T09:43:54;6.78;;;4.38;;
14778;SDS011;7481;53.750;10.570;2022-08-05T09:46:42;9.07;;;4.35;;
14778;SDS011;7481;53.750;10.570;2022-08-05T09:49:50;5.60;;;4.03;;
14778;SDS011;7481;53.750;10.570;2022-08-05T09:52:47;5.00;;;4.50;;
14778;SDS011;7481;53.750;10.570;2022-08-05T09:55:43;5.32;;;4.55;;
14778;SDS011;7481;53.750;10.570;2022-08-05T09:58:54;7.20;;;4.10;;
14778;SDS011;7481;53.750;10.570;2022-08-05T10:01:44;5.75;;;4.20;;
14778;SDS011;7481;53.750;10.570;2022-08-05T10:04:33;7.45;;;4.82;;
14778;SDS011;7481;53.750;10.570;2022-08-05T10:07:40;5.18;;;4.20;;
14778;SDS011;7481;53.750;10.570;2022-08-05T10:10:55;4.72;;;3.10;;
14778;SDS011;7481;53.750;10.570;2022-08-05T10:13:44;3.42;;;2.72;;
14778;SDS011;7481;53.750;10.570;2022-08-05T10:16:35;7.32;;;2.80;;
14778;SDS011;7481;53.750;10.570;2022-08-05T10:19:38;4.25;;;2.72;;
14778;SDS011;7481;53.750;10.570;2022-08-05T10:22:45;3.50;;;3.20;;
14778;SDS011;7481;53.750;10.570;2022-08-05T10:25:36;5.78;;;2.90;;
14778;SDS011;7481;53.750;10.570;2022-08-05T10:28:24;3.67;;;2.72;;
14778;SDS011;7481;53.750;10.570;2022-08-05T10:31:16;6.50;;;2.70;;
14778;SDS011;7481;53.750;10.570;2022-08-05T10:34:23;2.95;;;1.92;;
14778;SDS011;7481;53.750;10.570;2022-08-05T10:37:16;3.08;;;2.40;;
14778;SDS011;7481;53.750;10.570;2022-08-05T10:40:08;3.85;;;2.28;;
14778;SDS011;7481;53.750;10.570;2022-08-05T10:43:32;4.82;;;2.50;;
14778;SDS011;7481;53.750;10.570;2022-08-05T10:49:58;3.75;;;2.70;;
14778;SDS011;7481;53.750;10.570;2022-08-05T10:53:31;5.00;;;2.55;;
14778;SDS011;7481;53.750;10.570;2022-08-05T10:59:19;3.97;;;2.65;;
14778;SDS011;7481;53.750;10.570;2022-08-05T11:02:31;4.07;;;3.00;;
14778;SDS011;7481;53.750;10.570;2022-08-05T11:05:24;3.97;;;3.03;;
14778;SDS011;7481;53.750;10.570;2022-08-05T11:08:16;3.38;;;3.08;;
14778;SDS011;7481;53.750;10.570;2022-08-05T11:11:31;5.22;;;3.25;;
14778;SDS011;7481;53.750;10.570;2022-08-05T11:14:39;4.90;;;3.53;;
14778;SDS011;7481;53.750;10.570;2022-08-05T11:20:46;3.92;;;3.38;;
14778;SDS011;7481;53.750;10.570;2022-08-05T11:23:50;4.65;;;3.53;;
14778;SDS011;7481;53.750;10.570;2022-08-05T11:31:16;5.90;;;3.55;;
14778;SDS011;7481;53.750;10.570;2022-08-05T11:36:44;4.82;;;3.83;;
14778;SDS011;7481;53.750;10.570;2022-08-05T11:39:48;5.28;;;4.63;;
14778;SDS011;7481;53.750;10.570;2022-08-05T11:42:48;6.28;;;5.68;;
14778;SDS011;7481;53.750;10.570;2022-08-05T11:45:46;7.50;;;4.60;;
14778;SDS011;7481;53.750;10.570;2022-08-05T11:48:53;7.25;;;5.50;;
14778;SDS011;7481;53.750;10.570;2022-08-05T11:51:42;6.93;;;5.78;;
14778;SDS011;7481;53.750;10.570;2022-08-05T11:54:35;7.90;;;5.70;;
14778;SDS011;7481;53.750;10.570;2022-08-05T11:57:29;5.50;;;4.95;;
14778;SDS011;7481;53.750;10.570;2022-08-05T12:00:37;4.93;;;4.25;;
14778;SDS011;7481;53.750;10.570;2022-08-05T12:03:26;4.50;;;3.33;;
14778;SDS011;7481;53.750;10.570;2022-08-05T12:06:19;5.28;;;2.90;;
14778;SDS011;7481;53.750;10.570;2022-08-05T12:09:11;8.60;;;2.90;;
14778;SDS011;7481;53.750;10.570;2022-08-05T12:12:06;5.78;;;3.78;;
14778;SDS011;7481;53.750;10.570;2022-08-05T12:14:55;5.82;;;4.32;;
14778;SDS011;7481;53.750;10.570;2022-08-05T12:17:42;4.75;;;3.10;;
14778;SDS011;7481;53.750;10.570;2022-08-05T12:20:49;5.10;;;2.90;;
14778;SDS011;7481;53.750;10.570;2022-08-05T12:23:36;6.53;;;3.30;;
14778;SDS011;7481;53.750;10.570;2022-08-05T12:26:32;2.90;;;2.60;;
14778;SDS011;7481;53.750;10.570;2022-08-05T12:29:29;4.93;;;2.90;;
14778;SDS011;7481;53.750;10.570;2022-08-05T12:32:24;4.70;;;2.90;;
14778;SDS011;7481;53.750;10.570;2022-08-05T12:35:11;5.85;;;3.42;;
14778;SDS011;7481;53.750;10.570;2022-08-05T12:38:07;2.72;;;2.50;;
14778;SDS011;7481;53.750;10.570;2022-08-05T12:40:56;3.90;;;2.65;;
14778;SDS011;7481;53.750;10.570;2022-08-05T12:43:48;2.60;;;2.40;;
14778;SDS011;7481;53.750;10.570;2022-08-05T12:46:36;3.88;;;2.67;;
14778;SDS011;7481;53.750;10.570;2022-08-05T12:49:44;6.03;;;3.25;;
14778;SDS011;7481;53.750;10.570;2022-08-05T12:52:55;7.03;;;3.17;;
14778;SDS011;7481;53.750;10.570;2022-08-05T12:55:45;3.20;;;2.65;;
14778;SDS011;7481;53.750;10.570;2022-08-05T12:58:35;3.15;;;2.42;;
14778;SDS011;7481;53.750;10.570;2022-08-05T13:01:41;3.58;;;2.65;;
14778;SDS011;7481;53.750;10.570;2022-08-05T13:04:51;5.32;;;2.53;;
14778;SDS011;7481;53.750;10.570;2022-08-05T13:07:41;3.92;;;3.50;;
14778;SDS011;7481;53.750;10.570;2022-08-05T13:10:45;4.30;;;2.95;;
14778;SDS011;7481;53.750;10.570;2022-08-05T13:13:36;4.10;;;2.45;;
14778;SDS011;7481;53.750;10.570;2022-08-05T13:16:55;2.13;;;1.90;;
14778;SDS011;7481;53.750;10.570;2022-08-05T13:23:10;4.28;;;1.83;;
14778;SDS011;7481;53.750;10.570;2022-08-05T13:25:57;2.35;;;1.90;;
14778;SDS011;7481;53.750;10.570;2022-08-05T13:28:46;3.75;;;1.83;;
14778;SDS011;7481;53.750;10.570;2022-08-05T13:31:39;2.28;;;1.63;;
14778;SDS011;7481;53.750;10.570;2022-08-05T13:34:47;2.90;;;1.77;;
14778;SDS011;7481;53.750;10.570;2022-08-05T13:37:36;2.22;;;1.50;;
14778;SDS011;7481;53.750;10.570;2022-08-05T13:40:23;3.28;;;1.40;;
14778;SDS011;7481;53.750;10.570;2022-08-05T13:43:30;3.85;;;1.52;;
14778;SDS011;7481;53.750;10.570;2022-08-05T13:46:37;1.95;;;1.40;;
14778;SDS011;7481;53.750;10.570;2022-08-05T13:49:44;4.13;;;1.60;;
14778;SDS011;7481;53.750;10.570;2022-08-05T13:52:34;1.95;;;1.35;;
14778;SDS011;7481;53.750;10.570;2022-08-05T13:55:21;1.90;;;1.40;;
14778;SDS011;7481;53.750;10.570;2022-08-05T13:58:28;2.90;;;1.50;;
14778;SDS011;7481;53.750;10.570;2022-08-05T14:01:16;2.67;;;1.52;;
14778;SDS011;7481;53.750;10.570;2022-08-05T14:04:04;2.17;;;1.63;;
14778;SDS011;7481;53.750;10.570;2022-08-05T14:07:12;4.18;;;1.50;;
14778;SDS011;7481;53.750;10.570;2022-08-05T14:10:19;3.50;;;1.70;;
14778;SDS011;7481;53.750;10.570;2022-08-05T14:13:13;2.38;;;1.40;;
14778;SDS011;7481;53.750;10.570;2022-08-05T14:16:01;2.40;;;1.48;;
14778;SDS011;7481;53.750;10.570;2022-08-05T14:18:56;2.83;;;1.85;;
14778;SDS011;7481;53.750;10.570;2022-08-05T14:21:50;3.72;;;1.90;;
14778;SDS011;7481;53.750;10.570;2022-08-05T14:24:56;2.30;;;1.30;;
14778;SDS011;7481;53.750;10.570;2022-08-05T14:27:43;2.50;;;1.55;;
14778;SDS011;7481;53.750;10.570;2022-08-05T14:30:33;2.30;;;1.50;;
14778;SDS011;7481;53.750;10.570;2022-08-05T14:33:21;3.42;;;1.55;;
14778;SDS011;7481;53.750;10.570;2022-08-05T14:36:09;2.78;;;1.40;;
14778;SDS011;7481;53.750;10.570;2022-08-05T14:38:56;2.08;;;1.45;;
14778;SDS011;7481;53.750;10.570;2022-08-05T14:41:48;2.30;;;1.50;;
14778;SDS011;7481;53.750;10.570;2022-08-05T14:44:55;2.55;;;1.20;;
14778;SDS011;7481;53.750;10.570;2022-08-05T14:47:44;2.03;;;1.38;;
14778;SDS011;7481;53.750;10.570;2022-08-05T14:50:51;1.50;;;1.38;;
14778;SDS011;7481;53.750;10.570;2022-08-05T14:53:38;2.55;;;1.50;;
14778;SDS011;7481;53.750;10.570;2022-08-05T14:56:30;3.28;;;1.52;;
14778;SDS011;7481;53.750;10.570;2022-08-05T14:59:17;2.80;;;1.50;;
14778;SDS011;7481;53.750;10.570;2022-08-05T15:02:07;2.83;;;1.30;;
14778;SDS011;7481;53.750;10.570;2022-08-05T15:05:01;2.00;;;1.42;;
14778;SDS011;7481;53.750;10.570;2022-08-05T15:07:59;1.85;;;1.30;;
14778;SDS011;7481;53.750;10.570;2022-08-05T15:10:58;2.05;;;1.52;;
14778;SDS011;7481;53.750;10.570;2022-08-05T15:13:46;2.00;;;1.50;;
14778;SDS011;7481;53.750;10.570;2022-08-05T15:16:35;4.00;;;1.30;;
14778;SDS011;7481;53.750;10.570;2022-08-05T15:19:25;2.30;;;1.35;;
14778;SDS011;7481;53.750;10.570;2022-08-05T15:22:13;4.47;;;1.60;;
14778;SDS011;7481;53.750;10.570;2022-08-05T15:25:01;2.47;;;1.40;;
14778;SDS011;7481;53.750;10.570;2022-08-05T15:27:59;1.92;;;1.30;;
14778;SDS011;7481;53.750;10.570;2022-08-05T15:30:47;1.45;;;1.30;;
14778;SDS011;7481;53.750;10.570;2022-08-05T15:33:38;2.90;;;1.30;;
14778;SDS011;7481;53.750;10.570;2022-08-05T15:36:45;2.05;;;1.50;;
14778;SDS011;7481;53.750;10.570;2022-08-05T15:39:33;1.88;;;1.35;;
14778;SDS011;7481;53.750;10.570;2022-08-05T15:42:39;2.55;;;1.67;;
14778;SDS011;7481;53.750;10.570;2022-08-05T15:45:43;2.63;;;1.83;;
14778;SDS011;7481;53.750;10.570;2022-08-05T15:48:31;3.63;;;1.65;;
14778;SDS011;7481;53.750;10.570;2022-08-05T15:51:19;3.83;;;1.70;;
14778;SDS011;7481;53.750;10.570;2022-08-05T15:54:30;2.30;;;1.75;;
14778;SDS011;7481;53.750;10.570;2022-08-05T15:57:22;2.78;;;1.70;;
14778;SDS011;7481;53.750;10.570;2022-08-05T16:00:13;3.15;;;1.75;;
14778;SDS011;7481;53.750;10.570;2022-08-05T16:03:18;4.25;;;1.85;;
14778;SDS011;7481;53.750;10.570;2022-08-05T16:06:06;3.08;;;1.60;;
14778;SDS011;7481;53.750;10.570;2022-08-05T16:08:57;3.15;;;2.00;;
14778;SDS011;7481;53.750;10.570;2022-08-05T16:11:44;4.32;;;1.63;;
14778;SDS011;7481;53.750;10.570;2022-08-05T16:14:38;2.55;;;1.88;;
14778;SDS011;7481;53.750;10.570;2022-08-05T16:17:25;5.78;;;2.25;;
14778;SDS011;7481;53.750;10.570;2022-08-05T16:20:14;3.10;;;2.00;;
14778;SDS011;7481;53.750;10.570;2022-08-05T16:23:05;4.32;;;2.08;;
14778;SDS011;7481;53.750;10.570;2022-08-05T16:28:53;2.92;;;2.45;;
14778;SDS011;7481;53.750;10.570;2022-08-05T16:31:40;3.53;;;2.20;;
14778;SDS011;7481;53.750;10.570;2022-08-05T16:34:43;3.05;;;2.00;;
14778;SDS011;7481;53.750;10.570;2022-08-05T16:37:30;6.03;;;2.55;;
14778;SDS011;7481;53.750;10.570;2022-08-05T16:40:39;5.68;;;2.65;;
14778;SDS011;7481;53.750;10.570;2022-08-05T16:43:28;4.53;;;2.88;;
14778;SDS011;7481;53.750;10.570;2022-08-05T16:46:16;5.18;;;3.03;;
14778;SDS011;7481;53.750;10.570;2022-08-05T16:49:10;8.15;;;3.40;;
14778;SDS011;7481;53.750;10.570;2022-08-05T16:51:59;3.70;;;2.50;;
14778;SDS011;7481;53.750;10.570;2022-08-05T16:54:48;4.68;;;2.85;;
14778;SDS011;7481;53.750;10.570;2022-08-05T16:57:35;4.35;;;2.72;;
14778;SDS011;7481;53.750;10.570;2022-08-05T17:00:39;6.30;;;2.58;;
14778;SDS011;7481;53.750;10.570;2022-08-05T17:03:26;3.88;;;2.17;;
14778;SDS011;7481;53.750;10.570;2022-08-05T17:06:16;5.70;;;2.50;;
14778;SDS011;7481;53.750;10.570;2022-08-05T17:09:03;4.57;;;2.33;;
14778;SDS011;7481;53.750;10.570;2022-08-05T17:11:50;3.75;;;2.20;;
14778;SDS011;7481;53.750;10.570;2022-08-05T17:14:45;2.67;;;2.03;;
14778;SDS011;7481;53.750;10.570;2022-08-05T17:17:33;3.42;;;2.05;;
14778;SDS011;7481;53.750;10.570;2022-08-05T17:20:28;5.97;;;2.33;;
14778;SDS011;7481;53.750;10.570;2022-08-05T17:23:15;2.08;;;1.85;;
14778;SDS011;7481;53.750;10.570;2022-08-05T17:26:22;3.35;;;1.95;;
14778;SDS011;7481;53.750;10.570;2022-08-05T17:29:09;3.47;;;2.38;;
14778;SDS011;7481;53.750;10.570;2022-08-05T17:31:56;2.92;;;2.22;;
14778;SDS011;7481;53.750;10.570;2022-08-05T17:34:45;4.53;;;2.15;;
14778;SDS011;7481;53.750;10.570;2022-08-05T17:37:33;3.65;;;2.00;;
14778;SDS011;7481;53.750;10.570;2022-08-05T17:40:30;3.17;;;1.70;;
14778;SDS011;7481;53.750;10.570;2022-08-05T17:43:17;3.58;;;1.83;;
14778;SDS011;7481;53.750;10.570;2022-08-05T17:46:24;4.05;;;1.85;;
14778;SDS011;7481;53.750;10.570;2022-08-05T17:49:11;3.53;;;1.90;;
14778;SDS011;7481;53.750;10.570;2022-08-05T17:52:00;3.28;;;1.60;;
14778;SDS011;7481;53.750;10.570;2022-08-05T17:54:47;2.25;;;1.50;;
14778;SDS011;7481;53.750;10.570;2022-08-05T17:57:39;3.13;;;1.50;;
14778;SDS011;7481;53.750;10.570;2022-08-05T18:00:35;3.65;;;1.70;;